Zabol Airport

Airport
ICAO code: 
OIZB
IATA Code: 
ACZ
Summary
ICAO Region: 
MID
Territory: 
Location: 
Zabol, Sistan and Baluchistan Province
Serving: 
Zabol
Elevation: 
1628 ft
Coordinates: 
Aerial View: 
31° 5' 16.149" N, 61° 32' 34.261" E
Metar
Observation
OIZB 261900Z 31008KT CAVOK 34/02 Q0998
Station
Zabol
Date/Time
2022-06-26 19:00:00
Wind direction
310°
Wind speed
08 kts
Lowest cloud amount
clouds and visibility OK
Temperature
34°C
Dew point
2°C
Humidity
13%
QNH
998 hPa
Weather condition
n/a

Airport 9km northeast of the Iranian city of Zabol, close to the Afghan border.

Climatology

Hot Desert climate (Köppen climate classification BWh).

Runways

Designator Length Width Surface Rops
16/34 3002 45 ASP No/No
Airport map: 
Aerial View: 

SKYbrary Partners:

Safety knowledge contributed by: